Time,TemperatureF,DewpointF,PressureIn,WindDirection,WindDirectionDegrees,WindSpeedMPH,WindSpeedGustMPH,Humidity,HourlyPrecipIn,Conditions,Clouds,dailyrainin,SolarRadiationWatts/m^2,SoftwareType,DateUTC
2016-02-13 00:11:00,18.4,12.0,30.33,WNW,294,16.0,16.0,76,0.00,,,0.00,0,weatherlink.com 1.10,2016-02-13 05:11:00,
2016-02-13 00:26:00,18.1,10.0,30.34,NW,317,5.0,10.0,71,0.00,,,0.00,0,weatherlink.com 1.10,2016-02-13 05:26:00,
2016-02-13 00:41:00,17.9,10.0,30.34,NW,321,6.0,12.0,71,0.00,,,0.00,0,weatherlink.com 1.10,2016-02-13 05:41:00,
2016-02-13 00:56:00,17.6,9.0,30.35,NW,318,4.0,7.0,69,0.00,,,0.00,0,weatherlink.com 1.10,2016-02-13 05:56:00,
2016-02-13 01:11:00,17.3,9.0,30.35,NW,307,4.0,12.0,69,0.00,,,0.00,0,weatherlink.com 1.10,2016-02-13 06:11:00,
2016-02-13 01:26:00,17.1,9.0,30.36,North,350,3.0,14.0,70,0.00,,,0.00,0,weatherlink.com 1.10,2016-02-13 06:26:00,
2016-02-13 01:41:00,16.5,8.0,30.36,WNW,298,5.0,8.0,70,0.00,,,0.00,0,weatherlink.com 1.10,2016-02-13 06:41:00,
2016-02-13 01:56:00,16.0,8.0,30.36,NW,304,6.0,10.0,72,0.00,,,0.00,0,weatherlink.com 1.10,2016-02-13 06:56:00,
2016-02-13 02:11:00,15.5,8.0,30.37,NW,323,3.0,10.0,73,0.00,,,0.00,0,weatherlink.com 1.10,2016-02-13 07:11:00,
2016-02-13 02:26:00,14.9,8.0,30.37,WNW,296,5.0,7.0,74,0.00,,,0.00,0,weatherlink.com 1.10,2016-02-13 07:26:00,
2016-02-13 02:41:00,14.7,8.0,30.38,NNW,335,3.0,7.0,75,0.00,,,0.00,0,weatherlink.com 1.10,2016-02-13 07:41:00,
2016-02-13 02:56:00,14.5,8.0,30.39,NW,311,2.0,8.0,75,0.00,,,0.00,0,weatherlink.com 1.10,2016-02-13 07:56:00,
2016-02-13 03:11:00,14.3,8.0,30.40,NW,316,3.0,8.0,75,0.00,,,0.00,0,weatherlink.com 1.10,2016-02-13 08:11:00,
2016-02-13 03:26:00,14.0,8.0,30.40,NNW,329,3.0,9.0,76,0.00,,,0.00,0,weatherlink.com 1.10,2016-02-13 08:26:00,
2016-02-13 03:41:00,13.7,7.0,30.41,WNW,294,4.0,6.0,76,0.00,,,0.00,0,weatherlink.com 1.10,2016-02-13 08:41:00,
2016-02-13 03:56:00,13.9,8.0,30.41,WNW,290,1.0,7.0,78,0.00,,,0.00,0,weatherlink.com 1.10,2016-02-13 08:56:00,
2016-02-13 04:11:00,14.4,9.0,30.42,NW,318,1.0,11.0,78,0.00,,,0.00,0,weatherlink.com 1.10,2016-02-13 09:11:00,
2016-02-13 04:26:00,14.6,9.0,30.42,NW,323,2.0,7.0,78,0.00,,,0.00,0,weatherlink.com 1.10,2016-02-13 09:26:00,
2016-02-13 04:41:00,14.5,9.0,30.43,NNW,327,4.0,11.0,78,0.00,,,0.00,0,weatherlink.com 1.10,2016-02-13 09:41:00,
2016-02-13 04:56:00,14.2,9.0,30.44,West,263,1.0,9.0,78,0.00,,,0.00,0,weatherlink.com 1.10,2016-02-13 09:56:00,
2016-02-13 05:12:00,13.7,8.0,30.45,NW,320,0.0,10.0,77,0.00,,,0.00,0,weatherlink.com 1.10,2016-02-13 10:12:00,
2016-02-13 05:27:00,13.2,7.0,30.45,NW,304,4.0,9.0,77,0.00,,,0.00,0,weatherlink.com 1.10,2016-02-13 10:27:00,
2016-02-13 05:42:00,12.8,7.0,30.46,WNW,297,0.0,5.0,77,0.00,,,0.00,0,weatherlink.com 1.10,2016-02-13 10:42:00,
2016-02-13 05:57:00,12.3,6.0,30.47,NW,321,3.0,8.0,77,0.00,,,0.00,0,weatherlink.com 1.10,2016-02-13 10:57:00,
2016-02-13 06:12:00,12.3,7.0,30.47,WNW,302,3.0,8.0,78,0.00,,,0.00,0,weatherlink.com 1.10,2016-02-13 11:12:00,
2016-02-13 06:27:00,12.6,7.0,30.48,North,5,3.0,8.0,79,0.00,,,0.00,0,weatherlink.com 1.10,2016-02-13 11:27:00,
2016-02-13 06:42:00,12.7,8.0,30.49,NNE,26,0.0,5.0,80,0.00,,,0.00,0,weatherlink.com 1.10,2016-02-13 11:42:00,
2016-02-13 06:57:00,12.4,8.0,30.50,NNE,25,0.0,2.0,81,0.00,,,0.00,0,weatherlink.com 1.10,2016-02-13 11:57:00,
2016-02-13 07:12:00,11.8,7.0,30.51,NNE,16,1.0,7.0,81,0.00,,,0.00,0,weatherlink.com 1.10,2016-02-13 12:12:00,
2016-02-13 07:42:00,10.4,5.0,30.52,North,355,1.0,4.0,77,0.00,,,0.00,18,weatherlink.com 1.10,2016-02-13 12:42:00,
2016-02-13 07:57:00,10.4,4.0,30.53,NNW,335,4.0,5.0,76,0.00,,,0.00,54,weatherlink.com 1.10,2016-02-13 12:57:00,
2016-02-13 08:12:00,11.0,5.0,30.54,NNW,333,2.0,4.0,76,0.00,,,0.00,102,weatherlink.com 1.10,2016-02-13 13:12:00,
2016-02-13 08:27:00,12.0,5.0,30.54,NNW,330,3.0,7.0,74,0.00,,,0.00,144,weatherlink.com 1.10,2016-02-13 13:27:00,
2016-02-13 08:42:00,12.9,5.0,30.55,WNW,298,3.0,5.0,71,0.00,,,0.00,199,weatherlink.com 1.10,2016-02-13 13:42:00,